Aeroporto :
LOGIN :

Iscrizione | Disclaimer

   EN    FR    IT 

 










Sommario :    VFR   VFR Marginale   IFR   IFR Intensivo   IFR Molto Intensivo
Visibilità : 
Base nubi : 
>= 8 km
>= 3000ft
5 / 8 km
1000 / 3000 ft
1500m / 5 km
500 / 1000 ft
800 / 1500m
200 / 500 ft
< 800m
< 200 ft
Simboli :   Temporali  Nebbia  Neve Forte  Precipitazioni Forti  Vento > 20 kt
SIGMETs :   Varie  Temporali  Ghiacco  Turbolenza  Onda orograficha  Ceneri Vulcaniche






- Altitudine del aeroporto : 31 ft
- Codice IATA : INV


EGPE - Inverness

ULTIMO METAR :
  • 191620Z 35010KT 9999 VCSH FEW008 SCT028 10/08 Q1005

METARs OBSOLETI :
  • 191550Z 36008KT 9999 VCSH FEW008 SCT030 10/08 Q1005
  • 191520Z 35009KT 9999 VCSH FEW008 SCT030 10/08 Q1004
  • 191450Z 35010KT 9999 VCSH FEW008 SCT030 10/09 Q1004
  • 191420Z 36010KT 9999 VCSH FEW008 SCT030 BKN045 10/08 Q1004
  • 191350Z 02010KT 9999 VCSH FEW008 SCT030CB 11/08 Q1004

TAF TAF EGPE
Valido dal 19 a 15 ore il 20 a 00 ore UTC


191355Z 1915/1924 36009KT 9999 FEW018
PROB40
TEMPO 1915/1924 6000 SHRA
ATIS : +44 1667 464 255



MetMap, La meteo Aeronautica in un colpo d'occhio ! - Copyright ORBIFLY Dicembre 2007 - Disclaimer

ORBIFLY MET'MAP TEAM :

Programmazione e sviluppo : Alexandra Zaïnal
Concezione e sviluppo : Baudouin d'Aumeries
Co-Programmazione e sviluppo : Marc-Olivier Méhu
Supporto tecnico e logistico : Manuel Goepfert
Aiuto per la traduzione : Arnaldo La Scala

Contatto : metmap@orbifly.com




FONTI E CREDITI :

   NOAA